Terminal Aerodrome Forecast
Issued by NWS Sioux Falls, SD

Home | Current Version | Previous Version | Text Only | Print | Product List | Glossary Off
Versions: 1 2 3 4 5 6 7 8 9 10 11 12 13 14 15 16 17

000
FTUS43 KFSD 200538
TAFSUX
TAF
KSUX 200538Z 2006/2106 01008KT 5SM -SNPL OVC010
     FM200800 34009KT 3SM -PL OVC015
     FM201000 34011KT 3SM -SN OVC018
     FM201200 34012KT 6SM BR OVC020
     FM201400 33015G23KT P6SM BKN035
     FM202200 32014KT P6SM BKN060=

USA.gov is the U.S. government's official web portal to all federal, state and local government web resources and services.